sensor_id;sensor_type;location;lat;lon;timestamp;P1;durP1;ratioP1;P2;durP2;ratioP2
9306;SDS011;4691;47.612;7.610;2023-03-01T00:01:44;91.55;;;37.55;;
9306;SDS011;4691;47.612;7.610;2023-03-01T00:04:10;86.63;;;37.78;;
9306;SDS011;4691;47.612;7.610;2023-03-01T00:06:35;85.18;;;35.45;;
9306;SDS011;4691;47.612;7.610;2023-03-01T00:09:02;73.30;;;31.75;;
9306;SDS011;4691;47.612;7.610;2023-03-01T00:11:28;71.53;;;31.92;;
9306;SDS011;4691;47.612;7.610;2023-03-01T00:13:55;71.07;;;31.85;;
9306;SDS011;4691;47.612;7.610;2023-03-01T00:16:25;76.05;;;32.72;;
9306;SDS011;4691;47.612;7.610;2023-03-01T00:18:53;78.72;;;32.72;;
9306;SDS011;4691;47.612;7.610;2023-03-01T00:21:20;71.60;;;32.05;;
9306;SDS011;4691;47.612;7.610;2023-03-01T00:23:47;79.00;;;32.83;;
9306;SDS011;4691;47.612;7.610;2023-03-01T00:26:14;77.82;;;35.92;;
9306;SDS011;4691;47.612;7.610;2023-03-01T00:28:40;77.68;;;33.45;;
9306;SDS011;4691;47.612;7.610;2023-03-01T00:31:08;72.45;;;33.47;;
9306;SDS011;4691;47.612;7.610;2023-03-01T00:33:34;82.93;;;34.42;;
9306;SDS011;4691;47.612;7.610;2023-03-01T00:36:00;87.13;;;36.08;;
9306;SDS011;4691;47.612;7.610;2023-03-01T00:38:26;77.03;;;32.65;;
9306;SDS011;4691;47.612;7.610;2023-03-01T00:40:52;76.63;;;33.38;;
9306;SDS011;4691;47.612;7.610;2023-03-01T00:43:17;75.22;;;31.92;;
9306;SDS011;4691;47.612;7.610;2023-03-01T00:45:43;76.22;;;32.00;;
9306;SDS011;4691;47.612;7.610;2023-03-01T00:48:08;83.03;;;34.08;;
9306;SDS011;4691;47.612;7.610;2023-03-01T00:50:34;95.10;;;39.17;;
9306;SDS011;4691;47.612;7.610;2023-03-01T00:52:59;91.22;;;36.28;;
9306;SDS011;4691;47.612;7.610;2023-03-01T00:55:25;78.20;;;31.13;;
9306;SDS011;4691;47.612;7.610;2023-03-01T00:57:50;75.45;;;33.25;;
9306;SDS011;4691;47.612;7.610;2023-03-01T01:00:16;84.30;;;34.50;;
9306;SDS011;4691;47.612;7.610;2023-03-01T01:02:42;82.43;;;34.15;;
9306;SDS011;4691;47.612;7.610;2023-03-01T01:05:08;77.68;;;33.15;;
9306;SDS011;4691;47.612;7.610;2023-03-01T01:07:33;75.65;;;32.33;;
9306;SDS011;4691;47.612;7.610;2023-03-01T01:09:59;84.18;;;35.95;;
9306;SDS011;4691;47.612;7.610;2023-03-01T01:12:24;81.20;;;32.80;;
9306;SDS011;4691;47.612;7.610;2023-03-01T01:14:50;80.32;;;31.70;;
9306;SDS011;4691;47.612;7.610;2023-03-01T01:17:15;69.00;;;29.38;;
9306;SDS011;4691;47.612;7.610;2023-03-01T01:19:40;76.10;;;32.65;;
9306;SDS011;4691;47.612;7.610;2023-03-01T01:22:06;82.80;;;35.15;;
9306;SDS011;4691;47.612;7.610;2023-03-01T01:24:32;71.15;;;31.27;;
9306;SDS011;4691;47.612;7.610;2023-03-01T01:26:57;77.65;;;32.28;;
9306;SDS011;4691;47.612;7.610;2023-03-01T01:29:23;72.90;;;31.42;;
9306;SDS011;4691;47.612;7.610;2023-03-01T01:31:48;86.38;;;33.75;;
9306;SDS011;4691;47.612;7.610;2023-03-01T01:34:19;73.80;;;31.88;;
9306;SDS011;4691;47.612;7.610;2023-03-01T01:36:49;67.15;;;29.88;;
9306;SDS011;4691;47.612;7.610;2023-03-01T01:39:18;86.70;;;33.80;;
9306;SDS011;4691;47.612;7.610;2023-03-01T01:41:44;72.00;;;30.70;;
9306;SDS011;4691;47.612;7.610;2023-03-01T01:44:19;79.82;;;32.42;;
9306;SDS011;4691;47.612;7.610;2023-03-01T01:52:14;75.43;;;31.95;;
9306;SDS011;4691;47.612;7.610;2023-03-01T01:57:31;77.90;;;33.17;;
9306;SDS011;4691;47.612;7.610;2023-03-01T02:00:05;75.05;;;31.60;;
9306;SDS011;4691;47.612;7.610;2023-03-01T02:02:37;74.80;;;32.78;;
9306;SDS011;4691;47.612;7.610;2023-03-01T02:07:58;70.10;;;29.88;;
9306;SDS011;4691;47.612;7.610;2023-03-01T02:10:24;70.75;;;30.95;;
9306;SDS011;4691;47.612;7.610;2023-03-01T02:12:51;74.10;;;32.13;;
9306;SDS011;4691;47.612;7.610;2023-03-01T02:15:18;76.72;;;31.92;;
9306;SDS011;4691;47.612;7.610;2023-03-01T02:17:43;75.22;;;33.40;;
9306;SDS011;4691;47.612;7.610;2023-03-01T02:22:53;78.85;;;33.75;;
9306;SDS011;4691;47.612;7.610;2023-03-01T02:30:44;85.43;;;33.47;;
9306;SDS011;4691;47.612;7.610;2023-03-01T02:33:31;74.80;;;30.35;;
9306;SDS011;4691;47.612;7.610;2023-03-01T02:36:01;73.97;;;28.73;;
9306;SDS011;4691;47.612;7.610;2023-03-01T02:38:29;69.10;;;28.52;;
9306;SDS011;4691;47.612;7.610;2023-03-01T02:40:55;74.70;;;30.67;;
9306;SDS011;4691;47.612;7.610;2023-03-01T02:43:22;71.90;;;29.27;;
9306;SDS011;4691;47.612;7.610;2023-03-01T02:45:52;79.43;;;29.90;;
9306;SDS011;4691;47.612;7.610;2023-03-01T02:48:22;84.60;;;33.25;;
9306;SDS011;4691;47.612;7.610;2023-03-01T02:53:16;98.47;;;36.42;;
9306;SDS011;4691;47.612;7.610;2023-03-01T02:55:48;89.63;;;35.45;;
9306;SDS011;4691;47.612;7.610;2023-03-01T02:58:14;84.45;;;34.95;;
9306;SDS011;4691;47.612;7.610;2023-03-01T03:00:40;74.57;;;31.25;;
9306;SDS011;4691;47.612;7.610;2023-03-01T03:03:21;88.05;;;35.35;;
9306;SDS011;4691;47.612;7.610;2023-03-01T03:05:47;81.28;;;34.92;;
9306;SDS011;4691;47.612;7.610;2023-03-01T03:08:13;81.18;;;34.50;;
9306;SDS011;4691;47.612;7.610;2023-03-01T03:10:41;88.40;;;35.88;;
9306;SDS011;4691;47.612;7.610;2023-03-01T03:13:11;111.38;;;40.75;;
9306;SDS011;4691;47.612;7.610;2023-03-01T03:15:38;93.80;;;36.15;;
9306;SDS011;4691;47.612;7.610;2023-03-01T03:19:32;86.78;;;32.78;;
9306;SDS011;4691;47.612;7.610;2023-03-01T03:21:57;87.10;;;33.08;;
9306;SDS011;4691;47.612;7.610;2023-03-01T03:24:24;90.05;;;35.95;;
9306;SDS011;4691;47.612;7.610;2023-03-01T03:26:49;84.57;;;32.97;;
9306;SDS011;4691;47.612;7.610;2023-03-01T03:29:14;82.50;;;33.95;;
9306;SDS011;4691;47.612;7.610;2023-03-01T03:31:40;84.80;;;32.70;;
9306;SDS011;4691;47.612;7.610;2023-03-01T03:34:05;78.25;;;34.20;;
9306;SDS011;4691;47.612;7.610;2023-03-01T03:36:30;76.38;;;31.92;;
9306;SDS011;4691;47.612;7.610;2023-03-01T03:38:56;75.90;;;33.97;;
9306;SDS011;4691;47.612;7.610;2023-03-01T03:41:21;76.68;;;32.45;;
9306;SDS011;4691;47.612;7.610;2023-03-01T03:43:47;74.03;;;30.85;;
9306;SDS011;4691;47.612;7.610;2023-03-01T03:46:13;74.65;;;30.95;;
9306;SDS011;4691;47.612;7.610;2023-03-01T03:48:40;72.18;;;29.52;;
9306;SDS011;4691;47.612;7.610;2023-03-01T03:51:10;81.05;;;31.83;;
9306;SDS011;4691;47.612;7.610;2023-03-01T03:53:36;77.72;;;31.45;;
9306;SDS011;4691;47.612;7.610;2023-03-01T03:56:02;72.38;;;30.98;;
9306;SDS011;4691;47.612;7.610;2023-03-01T03:58:28;75.63;;;33.13;;
9306;SDS011;4691;47.612;7.610;2023-03-01T04:00:55;81.78;;;35.22;;
9306;SDS011;4691;47.612;7.610;2023-03-01T04:03:22;83.20;;;32.97;;
9306;SDS011;4691;47.612;7.610;2023-03-01T04:05:49;85.57;;;35.00;;
9306;SDS011;4691;47.612;7.610;2023-03-01T04:08:22;77.22;;;31.60;;
9306;SDS011;4691;47.612;7.610;2023-03-01T04:13:17;76.88;;;31.77;;
9306;SDS011;4691;47.612;7.610;2023-03-01T04:15:45;78.93;;;31.52;;
9306;SDS011;4691;47.612;7.610;2023-03-01T04:18:15;79.53;;;33.35;;
9306;SDS011;4691;47.612;7.610;2023-03-01T04:20:41;75.20;;;29.73;;
9306;SDS011;4691;47.612;7.610;2023-03-01T04:23:08;95.30;;;36.25;;
9306;SDS011;4691;47.612;7.610;2023-03-01T04:25:42;98.70;;;37.40;;
9306;SDS011;4691;47.612;7.610;2023-03-01T04:28:14;80.70;;;34.78;;
9306;SDS011;4691;47.612;7.610;2023-03-01T04:30:40;84.15;;;35.60;;
9306;SDS011;4691;47.612;7.610;2023-03-01T04:33:06;89.05;;;36.60;;
9306;SDS011;4691;47.612;7.610;2023-03-01T04:35:33;91.32;;;35.10;;
9306;SDS011;4691;47.612;7.610;2023-03-01T04:37:59;78.03;;;32.20;;
9306;SDS011;4691;47.612;7.610;2023-03-01T04:40:26;86.47;;;34.88;;
9306;SDS011;4691;47.612;7.610;2023-03-01T04:42:51;85.88;;;33.88;;
9306;SDS011;4691;47.612;7.610;2023-03-01T04:45:17;83.60;;;32.83;;
9306;SDS011;4691;47.612;7.610;2023-03-01T04:47:43;93.05;;;40.30;;
9306;SDS011;4691;47.612;7.610;2023-03-01T04:50:11;91.53;;;39.47;;
9306;SDS011;4691;47.612;7.610;2023-03-01T04:52:38;100.53;;;40.20;;
9306;SDS011;4691;47.612;7.610;2023-03-01T04:55:04;97.55;;;40.08;;
9306;SDS011;4691;47.612;7.610;2023-03-01T04:57:30;93.47;;;36.83;;
9306;SDS011;4691;47.612;7.610;2023-03-01T04:59:56;86.97;;;36.22;;
9306;SDS011;4691;47.612;7.610;2023-03-01T05:02:22;88.25;;;37.03;;
9306;SDS011;4691;47.612;7.610;2023-03-01T05:04:49;95.72;;;36.75;;
9306;SDS011;4691;47.612;7.610;2023-03-01T05:07:15;86.90;;;35.13;;
9306;SDS011;4691;47.612;7.610;2023-03-01T05:09:45;85.90;;;33.45;;
9306;SDS011;4691;47.612;7.610;2023-03-01T05:12:13;86.18;;;35.05;;
9306;SDS011;4691;47.612;7.610;2023-03-01T05:14:39;77.63;;;33.58;;
9306;SDS011;4691;47.612;7.610;2023-03-01T05:17:07;90.28;;;35.92;;
9306;SDS011;4691;47.612;7.610;2023-03-01T05:19:33;94.18;;;38.63;;
9306;SDS011;4691;47.612;7.610;2023-03-01T05:21:59;93.68;;;36.00;;
9306;SDS011;4691;47.612;7.610;2023-03-01T05:24:34;85.55;;;34.95;;
9306;SDS011;4691;47.612;7.610;2023-03-01T05:27:00;88.13;;;36.67;;
9306;SDS011;4691;47.612;7.610;2023-03-01T05:29:27;84.47;;;35.22;;
9306;SDS011;4691;47.612;7.610;2023-03-01T05:31:57;103.88;;;39.70;;
9306;SDS011;4691;47.612;7.610;2023-03-01T05:34:26;90.30;;;36.20;;
9306;SDS011;4691;47.612;7.610;2023-03-01T05:36:53;99.22;;;38.47;;
9306;SDS011;4691;47.612;7.610;2023-03-01T05:39:23;98.43;;;36.70;;
9306;SDS011;4691;47.612;7.610;2023-03-01T05:41:54;93.82;;;35.97;;
9306;SDS011;4691;47.612;7.610;2023-03-01T05:44:21;98.78;;;37.33;;
9306;SDS011;4691;47.612;7.610;2023-03-01T05:46:47;93.93;;;35.75;;
9306;SDS011;4691;47.612;7.610;2023-03-01T05:49:15;103.82;;;39.20;;
9306;SDS011;4691;47.612;7.610;2023-03-01T05:51:41;89.75;;;35.70;;
9306;SDS011;4691;47.612;7.610;2023-03-01T05:54:10;93.68;;;37.42;;
9306;SDS011;4691;47.612;7.610;2023-03-01T05:56:36;83.70;;;34.45;;
9306;SDS011;4691;47.612;7.610;2023-03-01T05:59:02;92.28;;;36.90;;
9306;SDS011;4691;47.612;7.610;2023-03-01T06:01:29;89.00;;;35.97;;
9306;SDS011;4691;47.612;7.610;2023-03-01T06:03:56;98.60;;;38.92;;
9306;SDS011;4691;47.612;7.610;2023-03-01T06:06:21;97.03;;;37.08;;
9306;SDS011;4691;47.612;7.610;2023-03-01T06:08:47;95.95;;;36.60;;
9306;SDS011;4691;47.612;7.610;2023-03-01T06:11:12;97.13;;;37.50;;
9306;SDS011;4691;47.612;7.610;2023-03-01T06:13:38;92.63;;;36.45;;
9306;SDS011;4691;47.612;7.610;2023-03-01T06:16:04;89.00;;;34.80;;
9306;SDS011;4691;47.612;7.610;2023-03-01T06:18:31;105.95;;;39.92;;
9306;SDS011;4691;47.612;7.610;2023-03-01T06:20:56;92.05;;;34.55;;
9306;SDS011;4691;47.612;7.610;2023-03-01T06:23:22;82.70;;;32.60;;
9306;SDS011;4691;47.612;7.610;2023-03-01T06:25:48;93.68;;;34.97;;
9306;SDS011;4691;47.612;7.610;2023-03-01T06:28:14;90.43;;;35.50;;
9306;SDS011;4691;47.612;7.610;2023-03-01T06:30:39;98.20;;;37.53;;
9306;SDS011;4691;47.612;7.610;2023-03-01T06:33:04;92.07;;;35.85;;
9306;SDS011;4691;47.612;7.610;2023-03-01T06:35:30;88.63;;;34.33;;
9306;SDS011;4691;47.612;7.610;2023-03-01T06:37:56;97.95;;;37.15;;
9306;SDS011;4691;47.612;7.610;2023-03-01T06:40:22;91.13;;;35.97;;
9306;SDS011;4691;47.612;7.610;2023-03-01T06:42:49;107.70;;;40.00;;
9306;SDS011;4691;47.612;7.610;2023-03-01T06:45:15;92.28;;;36.33;;
9306;SDS011;4691;47.612;7.610;2023-03-01T06:47:41;90.57;;;36.33;;
9306;SDS011;4691;47.612;7.610;2023-03-01T06:50:07;102.18;;;38.15;;
9306;SDS011;4691;47.612;7.610;2023-03-01T06:52:33;94.25;;;35.22;;
9306;SDS011;4691;47.612;7.610;2023-03-01T06:54:58;88.28;;;34.30;;
9306;SDS011;4691;47.612;7.610;2023-03-01T06:57:24;92.47;;;36.38;;
9306;SDS011;4691;47.612;7.610;2023-03-01T06:59:49;96.28;;;34.30;;
9306;SDS011;4691;47.612;7.610;2023-03-01T07:02:15;109.75;;;39.05;;
9306;SDS011;4691;47.612;7.610;2023-03-01T07:04:40;102.05;;;39.88;;
9306;SDS011;4691;47.612;7.610;2023-03-01T07:07:06;101.82;;;37.45;;
9306;SDS011;4691;47.612;7.610;2023-03-01T07:09:32;88.72;;;33.83;;
9306;SDS011;4691;47.612;7.610;2023-03-01T07:11:57;105.45;;;37.22;;
9306;SDS011;4691;47.612;7.610;2023-03-01T07:14:23;107.43;;;38.00;;
9306;SDS011;4691;47.612;7.610;2023-03-01T07:16:52;94.38;;;35.67;;
9306;SDS011;4691;47.612;7.610;2023-03-01T07:19:25;97.60;;;38.00;;
9306;SDS011;4691;47.612;7.610;2023-03-01T07:21:51;85.57;;;33.88;;
9306;SDS011;4691;47.612;7.610;2023-03-01T07:24:16;92.50;;;36.83;;
9306;SDS011;4691;47.612;7.610;2023-03-01T07:26:41;100.80;;;38.35;;
9306;SDS011;4691;47.612;7.610;2023-03-01T07:29:07;103.63;;;38.35;;
9306;SDS011;4691;47.612;7.610;2023-03-01T07:31:35;101.88;;;39.10;;
9306;SDS011;4691;47.612;7.610;2023-03-01T07:34:01;98.10;;;38.03;;
9306;SDS011;4691;47.612;7.610;2023-03-01T07:36:28;96.88;;;37.13;;
9306;SDS011;4691;47.612;7.610;2023-03-01T07:38:53;111.45;;;38.78;;
9306;SDS011;4691;47.612;7.610;2023-03-01T07:41:22;112.23;;;41.07;;
9306;SDS011;4691;47.612;7.610;2023-03-01T07:43:48;101.05;;;40.50;;
9306;SDS011;4691;47.612;7.610;2023-03-01T07:46:13;96.30;;;37.50;;
9306;SDS011;4691;47.612;7.610;2023-03-01T07:48:38;97.18;;;39.47;;
9306;SDS011;4691;47.612;7.610;2023-03-01T07:51:05;99.57;;;38.10;;
9306;SDS011;4691;47.612;7.610;2023-03-01T07:53:31;107.03;;;37.97;;
9306;SDS011;4691;47.612;7.610;2023-03-01T07:56:09;96.80;;;35.88;;
9306;SDS011;4691;47.612;7.610;2023-03-01T07:58:37;96.75;;;36.78;;
9306;SDS011;4691;47.612;7.610;2023-03-01T08:01:04;100.80;;;39.22;;
9306;SDS011;4691;47.612;7.610;2023-03-01T08:03:31;89.10;;;35.67;;
9306;SDS011;4691;47.612;7.610;2023-03-01T08:05:59;100.90;;;37.45;;
9306;SDS011;4691;47.612;7.610;2023-03-01T08:08:24;112.03;;;40.38;;
9306;SDS011;4691;47.612;7.610;2023-03-01T08:10:50;99.82;;;40.60;;
9306;SDS011;4691;47.612;7.610;2023-03-01T08:13:16;94.25;;;36.38;;
9306;SDS011;4691;47.612;7.610;2023-03-01T08:15:43;93.93;;;36.38;;
9306;SDS011;4691;47.612;7.610;2023-03-01T08:18:14;109.05;;;43.47;;
9306;SDS011;4691;47.612;7.610;2023-03-01T08:20:40;93.65;;;36.90;;
9306;SDS011;4691;47.612;7.610;2023-03-01T08:23:09;99.07;;;37.78;;
9306;SDS011;4691;47.612;7.610;2023-03-01T08:25:34;97.82;;;39.65;;
9306;SDS011;4691;47.612;7.610;2023-03-01T08:27:59;96.85;;;37.85;;
9306;SDS011;4691;47.612;7.610;2023-03-01T08:30:25;100.07;;;37.10;;
9306;SDS011;4691;47.612;7.610;2023-03-01T08:32:50;92.35;;;37.30;;
9306;SDS011;4691;47.612;7.610;2023-03-01T08:35:16;95.53;;;37.85;;
9306;SDS011;4691;47.612;7.610;2023-03-01T08:37:42;99.78;;;37.30;;
9306;SDS011;4691;47.612;7.610;2023-03-01T08:40:07;103.63;;;37.58;;
9306;SDS011;4691;47.612;7.610;2023-03-01T08:42:34;105.50;;;39.53;;
9306;SDS011;4691;47.612;7.610;2023-03-01T08:45:01;90.13;;;36.80;;
9306;SDS011;4691;47.612;7.610;2023-03-01T08:47:27;108.57;;;41.35;;
9306;SDS011;4691;47.612;7.610;2023-03-01T08:49:52;88.30;;;34.80;;
9306;SDS011;4691;47.612;7.610;2023-03-01T08:52:17;109.45;;;42.50;;
9306;SDS011;4691;47.612;7.610;2023-03-01T08:54:44;101.22;;;39.90;;
9306;SDS011;4691;47.612;7.610;2023-03-01T08:57:09;114.68;;;39.38;;
9306;SDS011;4691;47.612;7.610;2023-03-01T08:59:34;111.47;;;41.05;;
9306;SDS011;4691;47.612;7.610;2023-03-01T09:02:02;102.97;;;42.13;;
9306;SDS011;4691;47.612;7.610;2023-03-01T09:04:29;102.55;;;39.72;;
9306;SDS011;4691;47.612;7.610;2023-03-01T09:06:54;93.55;;;37.38;;
9306;SDS011;4691;47.612;7.610;2023-03-01T09:09:20;99.72;;;39.25;;
9306;SDS011;4691;47.612;7.610;2023-03-01T09:11:45;90.97;;;36.58;;
9306;SDS011;4691;47.612;7.610;2023-03-01T09:14:11;99.75;;;38.50;;
9306;SDS011;4691;47.612;7.610;2023-03-01T09:16:38;98.93;;;39.53;;
9306;SDS011;4691;47.612;7.610;2023-03-01T09:19:04;91.70;;;38.40;;
9306;SDS011;4691;47.612;7.610;2023-03-01T09:21:30;106.55;;;38.42;;
9306;SDS011;4691;47.612;7.610;2023-03-01T09:23:56;100.43;;;39.58;;
9306;SDS011;4691;47.612;7.610;2023-03-01T09:26:23;95.25;;;37.20;;
9306;SDS011;4691;47.612;7.610;2023-03-01T09:28:49;99.45;;;39.85;;
9306;SDS011;4691;47.612;7.610;2023-03-01T09:31:19;98.55;;;41.00;;
9306;SDS011;4691;47.612;7.610;2023-03-01T09:33:47;100.85;;;38.92;;
9306;SDS011;4691;47.612;7.610;2023-03-01T09:36:15;97.32;;;39.47;;
9306;SDS011;4691;47.612;7.610;2023-03-01T09:38:42;95.47;;;37.00;;
9306;SDS011;4691;47.612;7.610;2023-03-01T09:41:18;96.82;;;38.97;;
9306;SDS011;4691;47.612;7.610;2023-03-01T09:43:57;91.75;;;35.95;;
9306;SDS011;4691;47.612;7.610;2023-03-01T09:46:29;92.60;;;36.25;;
9306;SDS011;4691;47.612;7.610;2023-03-01T09:49:03;92.35;;;38.17;;
9306;SDS011;4691;47.612;7.610;2023-03-01T09:51:35;99.80;;;38.72;;
9306;SDS011;4691;47.612;7.610;2023-03-01T09:54:04;91.35;;;38.22;;
9306;SDS011;4691;47.612;7.610;2023-03-01T09:56:40;90.90;;;35.45;;
9306;SDS011;4691;47.612;7.610;2023-03-01T10:02:21;91.15;;;36.08;;
9306;SDS011;4691;47.612;7.610;2023-03-01T10:07:45;89.20;;;36.67;;
9306;SDS011;4691;47.612;7.610;2023-03-01T10:10:28;98.70;;;39.30;;
9306;SDS011;4691;47.612;7.610;2023-03-01T10:13:03;88.95;;;37.90;;
9306;SDS011;4691;47.612;7.610;2023-03-01T10:15:43;87.85;;;37.63;;
9306;SDS011;4691;47.612;7.610;2023-03-01T10:18:16;82.32;;;35.25;;
9306;SDS011;4691;47.612;7.610;2023-03-01T10:21:19;79.28;;;35.17;;
9306;SDS011;4691;47.612;7.610;2023-03-01T10:23:42;90.40;;;36.10;;
9306;SDS011;4691;47.612;7.610;2023-03-01T10:29:30;88.78;;;36.20;;
9306;SDS011;4691;47.612;7.610;2023-03-01T10:32:02;96.80;;;40.80;;
9306;SDS011;4691;47.612;7.610;2023-03-01T10:34:32;96.38;;;39.83;;
9306;SDS011;4691;47.612;7.610;2023-03-01T10:37:13;97.68;;;40.55;;
9306;SDS011;4691;47.612;7.610;2023-03-01T10:42:29;95.78;;;40.38;;
9306;SDS011;4691;47.612;7.610;2023-03-01T10:44:56;84.35;;;36.85;;
9306;SDS011;4691;47.612;7.610;2023-03-01T10:47:24;93.97;;;40.70;;
9306;SDS011;4691;47.612;7.610;2023-03-01T10:49:53;85.35;;;37.58;;
9306;SDS011;4691;47.612;7.610;2023-03-01T10:52:21;90.00;;;38.92;;
9306;SDS011;4691;47.612;7.610;2023-03-01T10:54:56;78.20;;;37.17;;
9306;SDS011;4691;47.612;7.610;2023-03-01T11:00:14;75.53;;;36.33;;
9306;SDS011;4691;47.612;7.610;2023-03-01T11:03:33;90.50;;;39.17;;
9306;SDS011;4691;47.612;7.610;2023-03-01T11:05:37;80.30;;;36.85;;
9306;SDS011;4691;47.612;7.610;2023-03-01T11:08:25;84.07;;;40.00;;
9306;SDS011;4691;47.612;7.610;2023-03-01T11:13:55;81.05;;;36.80;;
9306;SDS011;4691;47.612;7.610;2023-03-01T11:16:28;80.93;;;35.60;;
9306;SDS011;4691;47.612;7.610;2023-03-01T11:19:00;80.65;;;38.58;;
9306;SDS011;4691;47.612;7.610;2023-03-01T11:21:43;87.18;;;40.75;;
9306;SDS011;4691;47.612;7.610;2023-03-01T11:24:10;80.65;;;38.70;;
9306;SDS011;4691;47.612;7.610;2023-03-01T11:26:39;72.20;;;36.45;;
9306;SDS011;4691;47.612;7.610;2023-03-01T11:29:11;79.13;;;38.40;;
9306;SDS011;4691;47.612;7.610;2023-03-01T11:31:43;79.05;;;37.80;;
9306;SDS011;4691;47.612;7.610;2023-03-01T11:34:14;77.28;;;38.88;;
9306;SDS011;4691;47.612;7.610;2023-03-01T11:40:26;67.60;;;35.13;;
9306;SDS011;4691;47.612;7.610;2023-03-01T11:45:47;69.57;;;33.28;;
9306;SDS011;4691;47.612;7.610;2023-03-01T11:51:02;73.30;;;34.83;;
9306;SDS011;4691;47.612;7.610;2023-03-01T11:53:38;74.25;;;38.28;;
9306;SDS011;4691;47.612;7.610;2023-03-01T11:56:25;72.95;;;35.00;;
9306;SDS011;4691;47.612;7.610;2023-03-01T11:59:00;66.43;;;33.42;;
9306;SDS011;4691;47.612;7.610;2023-03-01T12:07:53;67.55;;;33.55;;
9306;SDS011;4691;47.612;7.610;2023-03-01T12:15:51;61.20;;;31.88;;
9306;SDS011;4691;47.612;7.610;2023-03-01T12:21:42;61.33;;;33.17;;
9306;SDS011;4691;47.612;7.610;2023-03-01T12:27:07;63.38;;;32.30;;
9306;SDS011;4691;47.612;7.610;2023-03-01T12:30:04;61.35;;;31.98;;
9306;SDS011;4691;47.612;7.610;2023-03-01T12:35:36;60.80;;;31.95;;
9306;SDS011;4691;47.612;7.610;2023-03-01T12:46:21;61.55;;;32.75;;
9306;SDS011;4691;47.612;7.610;2023-03-01T12:48:48;65.55;;;34.00;;
9306;SDS011;4691;47.612;7.610;2023-03-01T12:51:23;65.47;;;34.38;;
9306;SDS011;4691;47.612;7.610;2023-03-01T12:53:51;56.03;;;29.73;;
9306;SDS011;4691;47.612;7.610;2023-03-01T12:56:23;74.40;;;32.83;;
9306;SDS011;4691;47.612;7.610;2023-03-01T13:01:52;58.97;;;31.25;;
9306;SDS011;4691;47.612;7.610;2023-03-01T13:17:46;62.15;;;32.88;;
9306;SDS011;4691;47.612;7.610;2023-03-01T13:20:14;61.60;;;31.63;;
9306;SDS011;4691;47.612;7.610;2023-03-01T13:22:41;65.53;;;31.83;;
9306;SDS011;4691;47.612;7.610;2023-03-01T13:25:15;70.78;;;33.63;;
9306;SDS011;4691;47.612;7.610;2023-03-01T13:27:45;58.83;;;30.13;;
9306;SDS011;4691;47.612;7.610;2023-03-01T13:33:33;64.93;;;32.15;;
9306;SDS011;4691;47.612;7.610;2023-03-01T13:35:53;56.92;;;29.63;;
9306;SDS011;4691;47.612;7.610;2023-03-01T13:46:47;68.75;;;33.33;;
9306;SDS011;4691;47.612;7.610;2023-03-01T13:49:18;63.47;;;31.73;;
9306;SDS011;4691;47.612;7.610;2023-03-01T13:51:46;56.88;;;30.50;;
9306;SDS011;4691;47.612;7.610;2023-03-01T13:54:12;61.90;;;31.60;;
9306;SDS011;4691;47.612;7.610;2023-03-01T13:56:40;61.88;;;32.03;;
9306;SDS011;4691;47.612;7.610;2023-03-01T14:01:42;58.03;;;30.80;;
9306;SDS011;4691;47.612;7.610;2023-03-01T14:04:24;59.92;;;31.17;;
9306;SDS011;4691;47.612;7.610;2023-03-01T14:07:09;57.22;;;29.60;;
9306;SDS011;4691;47.612;7.610;2023-03-01T14:20:44;63.30;;;32.67;;
9306;SDS011;4691;47.612;7.610;2023-03-01T14:23:17;58.83;;;31.13;;
9306;SDS011;4691;47.612;7.610;2023-03-01T14:28:19;63.20;;;32.72;;
9306;SDS011;4691;47.612;7.610;2023-03-01T14:30:52;56.03;;;29.73;;
9306;SDS011;4691;47.612;7.610;2023-03-01T14:35:52;66.07;;;31.88;;
9306;SDS011;4691;47.612;7.610;2023-03-01T14:38:21;57.75;;;29.30;;
9306;SDS011;4691;47.612;7.610;2023-03-01T14:40:56;59.53;;;30.27;;
9306;SDS011;4691;47.612;7.610;2023-03-01T14:43:27;65.18;;;30.50;;
9306;SDS011;4691;47.612;7.610;2023-03-01T14:45:54;53.45;;;28.88;;
9306;SDS011;4691;47.612;7.610;2023-03-01T14:48:20;58.30;;;30.58;;
9306;SDS011;4691;47.612;7.610;2023-03-01T14:50:46;58.65;;;32.67;;
9306;SDS011;4691;47.612;7.610;2023-03-01T14:53:15;58.42;;;31.30;;
9306;SDS011;4691;47.612;7.610;2023-03-01T14:55:44;71.55;;;37.50;;
9306;SDS011;4691;47.612;7.610;2023-03-01T14:58:13;61.38;;;31.83;;
9306;SDS011;4691;47.612;7.610;2023-03-01T15:00:44;63.33;;;30.85;;
9306;SDS011;4691;47.612;7.610;2023-03-01T15:03:38;62.20;;;32.00;;
9306;SDS011;4691;47.612;7.610;2023-03-01T15:06:06;60.60;;;31.55;;
9306;SDS011;4691;47.612;7.610;2023-03-01T15:08:33;59.65;;;30.58;;
9306;SDS011;4691;47.612;7.610;2023-03-01T15:11:20;63.10;;;32.58;;
9306;SDS011;4691;47.612;7.610;2023-03-01T15:13:49;58.58;;;29.92;;
9306;SDS011;4691;47.612;7.610;2023-03-01T15:16:32;64.90;;;34.28;;
9306;SDS011;4691;47.612;7.610;2023-03-01T15:18:59;67.00;;;34.38;;
9306;SDS011;4691;47.612;7.610;2023-03-01T15:21:34;65.22;;;32.10;;
9306;SDS011;4691;47.612;7.610;2023-03-01T15:24:13;57.33;;;31.08;;
9306;SDS011;4691;47.612;7.610;2023-03-01T15:26:58;60.45;;;31.65;;
9306;SDS011;4691;47.612;7.610;2023-03-01T15:29:31;59.97;;;30.40;;
9306;SDS011;4691;47.612;7.610;2023-03-01T15:32:02;58.22;;;29.90;;
9306;SDS011;4691;47.612;7.610;2023-03-01T15:34:47;56.83;;;30.45;;
9306;SDS011;4691;47.612;7.610;2023-03-01T15:42:57;65.35;;;33.35;;
9306;SDS011;4691;47.612;7.610;2023-03-01T15:45:28;61.47;;;32.63;;
9306;SDS011;4691;47.612;7.610;2023-03-01T15:47:56;70.53;;;34.47;;
9306;SDS011;4691;47.612;7.610;2023-03-01T15:50:35;65.57;;;32.55;;
9306;SDS011;4691;47.612;7.610;2023-03-01T15:53:06;57.42;;;30.50;;
9306;SDS011;4691;47.612;7.610;2023-03-01T15:55:36;63.67;;;32.55;;
9306;SDS011;4691;47.612;7.610;2023-03-01T15:58:12;52.90;;;29.70;;
9306;SDS011;4691;47.612;7.610;2023-03-01T16:00:39;60.60;;;30.40;;
9306;SDS011;4691;47.612;7.610;2023-03-01T16:03:05;57.03;;;31.13;;
9306;SDS011;4691;47.612;7.610;2023-03-01T16:05:33;60.25;;;31.80;;
9306;SDS011;4691;47.612;7.610;2023-03-01T16:08:02;104.80;;;54.05;;
9306;SDS011;4691;47.612;7.610;2023-03-01T16:10:28;80.93;;;38.65;;
9306;SDS011;4691;47.612;7.610;2023-03-01T16:12:54;58.60;;;30.75;;
9306;SDS011;4691;47.612;7.610;2023-03-01T16:17:46;56.55;;;28.98;;
9306;SDS011;4691;47.612;7.610;2023-03-01T16:20:12;58.22;;;28.35;;
9306;SDS011;4691;47.612;7.610;2023-03-01T16:22:40;57.85;;;28.05;;
9306;SDS011;4691;47.612;7.610;2023-03-01T16:25:06;60.08;;;28.50;;
9306;SDS011;4691;47.612;7.610;2023-03-01T16:27:33;64.95;;;30.23;;
9306;SDS011;4691;47.612;7.610;2023-03-01T16:29:59;59.50;;;29.38;;
9306;SDS011;4691;47.612;7.610;2023-03-01T16:32:24;65.20;;;29.83;;
9306;SDS011;4691;47.612;7.610;2023-03-01T16:34:49;66.85;;;31.75;;
9306;SDS011;4691;47.612;7.610;2023-03-01T16:37:15;62.80;;;29.80;;
9306;SDS011;4691;47.612;7.610;2023-03-01T16:39:41;58.30;;;27.92;;
9306;SDS011;4691;47.612;7.610;2023-03-01T16:42:06;58.42;;;28.63;;
9306;SDS011;4691;47.612;7.610;2023-03-01T16:44:32;61.33;;;29.25;;
9306;SDS011;4691;47.612;7.610;2023-03-01T16:46:59;64.32;;;31.08;;
9306;SDS011;4691;47.612;7.610;2023-03-01T16:49:25;63.92;;;29.00;;
9306;SDS011;4691;47.612;7.610;2023-03-01T16:51:50;69.20;;;32.15;;
9306;SDS011;4691;47.612;7.610;2023-03-01T16:54:21;65.30;;;31.02;;
9306;SDS011;4691;47.612;7.610;2023-03-01T16:56:46;66.85;;;30.58;;
9306;SDS011;4691;47.612;7.610;2023-03-01T16:59:11;65.75;;;31.27;;
9306;SDS011;4691;47.612;7.610;2023-03-01T17:01:37;79.03;;;33.47;;
9306;SDS011;4691;47.612;7.610;2023-03-01T17:04:05;68.13;;;30.75;;
9306;SDS011;4691;47.612;7.610;2023-03-01T17:06:31;64.38;;;30.00;;
9306;SDS011;4691;47.612;7.610;2023-03-01T17:08:57;63.83;;;30.80;;
9306;SDS011;4691;47.612;7.610;2023-03-01T17:11:24;65.47;;;28.98;;